Time;durP1;ratioP1;P1;durP2;ratioP2;P2;SDS_P1;SDS_P2;PMS_P1;PMS_P2;Temp;Humidity;BMP_temperature;BMP_pressure;BME280_temperature;BME280_humidity;BME280_pressure;Samples;Min_cycle;Max_cycle;Signal;HPM_P1;HPM_P2
2022/12/13 00:00:39;;;;;;;32.05;20.73;;;;;;;-1.23;76.25;100328.88;6337417;22;20022;-80
2022/12/13 00:03:42;;;;;;;33.72;23.27;;;;;;;-1.26;76.75;100318.63;6337991;22;20038;-80
2022/12/13 00:06:45;;;;;;;33.75;23.38;;;;;;;-1.30;76.88;100322.09;6338022;22;20053;-80
2022/12/13 00:09:50;;;;;;;37.40;25.20;;;;;;;-1.07;76.45;100319.34;6337931;22;20111;-82
2022/12/13 00:12:53;;;;;;;39.85;25.65;;;;;;;-1.13;76.29;100321.13;6319218;22;20061;-82
2022/12/13 00:15:58;;;;;;;33.78;23.98;;;;;;;-1.00;76.43;100325.28;6337905;22;20075;-82
2022/12/13 00:19:02;;;;;;;36.22;23.75;;;;;;;-0.98;75.57;100319.28;6337355;22;20050;-82
2022/12/13 00:22:06;;;;;;;40.30;26.08;;;;;;;-1.00;75.48;100325.28;6337839;22;20025;-82
2022/12/13 00:25:09;;;;;;;39.42;24.92;;;;;;;-1.11;76.20;100327.09;6337684;22;20069;-82
2022/12/13 00:28:14;;;;;;;38.33;25.13;;;;;;;-1.06;76.03;100320.19;6337553;22;20053;-82
2022/12/13 00:31:19;;;;;;;34.13;23.63;;;;;;;-1.11;76.14;100314.28;6337654;22;20075;-82
2022/12/13 00:34:23;;;;;;;40.58;24.08;;;;;;;-1.14;76.68;100311.72;6337647;22;20481;-82
2022/12/13 00:37:26;;;;;;;37.63;25.02;;;;;;;-1.20;76.99;100313.47;6337708;22;20378;-83
2022/12/13 00:40:30;;;;;;;37.92;24.52;;;;;;;-1.11;76.08;100317.69;6336677;22;20094;-83
2022/12/13 00:43:33;;;;;;;38.53;25.48;;;;;;;-1.21;76.28;100304.06;6337777;22;20425;-83
2022/12/13 00:46:38;;;;;;;36.35;24.10;;;;;;;-0.98;76.09;100300.47;6337872;22;20025;-83
2022/12/13 00:49:41;;;;;;;38.58;25.33;;;;;;;-1.06;75.66;100299.66;6337586;22;20367;-84
2022/12/13 00:52:46;;;;;;;37.03;23.48;;;;;;;-0.96;75.29;100296.16;6318379;22;20068;-83
2022/12/13 00:55:49;;;;;;;33.97;23.92;;;;;;;-1.02;75.51;100303.91;6337123;22;20022;-82
2022/12/13 00:58:56;;;;;;;35.42;22.90;;;;;;;-1.20;76.47;100292.94;6337199;22;20036;-82
2022/12/13 01:01:58;;;;;;;;;;;;;;;-0.98;75.65;100292.78;6338015;22;20482;-82
2022/12/13 01:05:01;;;;;;;35.92;23.35;;;;;;;-1.11;75.85;100292.03;6337249;22;20394;-82
2022/12/13 01:08:05;;;;;;;36.63;23.17;;;;;;;-1.39;76.20;100288.81;6337535;22;20364;-81
2022/12/13 01:11:09;;;;;;;31.10;21.35;;;;;;;-1.30;76.54;100288.75;6337656;22;20048;-81
2022/12/13 01:14:13;;;;;;;33.28;23.08;;;;;;;-1.55;77.22;100289.78;6336746;22;20025;-81
2022/12/13 01:17:17;;;;;;;35.42;24.13;;;;;;;-1.50;77.41;100296.59;6337227;22;20022;-82
2022/12/13 01:20:23;;;;;;;37.45;22.55;;;;;;;-1.31;76.88;100289.63;6318483;22;20080;-81
2022/12/13 01:23:28;;;;;;;33.28;22.52;;;;;;;-1.30;76.70;100285.34;6318435;22;20068;-81
2022/12/13 01:26:33;;;;;;;36.40;24.13;;;;;;;-1.27;76.51;100291.28;6337229;22;20053;-82
2022/12/13 01:29:37;;;;;;;32.67;24.35;;;;;;;-1.21;76.62;100287.84;6337466;22;20025;-82
2022/12/13 01:32:41;;;;;;;36.55;23.58;;;;;;;-1.15;76.39;100295.47;6318132;22;20613;-82
2022/12/13 01:35:44;;;;;;;;;;;;;;;-1.11;76.15;100293.75;6337794;22;20021;-82
2022/12/13 01:38:47;;;;;;;36.70;23.90;;;;;;;-1.15;76.52;100297.19;6336986;22;19913;-82
2022/12/13 01:41:58;;;;;;;34.30;23.20;;;;;;;-1.29;76.83;100298.13;6337371;22;20025;-81
2022/12/13 01:45:05;;;;;;;32.97;22.80;;;;;;;-1.30;77.14;100295.59;6337260;22;20030;-80
2022/12/13 01:48:16;;;;;;;36.33;24.95;;;;;;;-1.31;77.67;100294.75;6337202;22;20076;-80
2022/12/13 01:51:30;;;;;;;33.90;22.40;;;;;;;-1.13;76.58;100298.03;6337103;22;20055;-80
2022/12/13 01:54:39;;;;;;;33.57;22.73;;;;;;;-1.18;76.66;100280.97;6337136;22;20021;-80
2022/12/13 01:57:47;;;;;;;36.30;22.48;;;;;;;-1.04;76.31;100285.13;6337166;22;20264;-80
2022/12/13 02:00:50;;;;;;;33.05;23.13;;;;;;;-1.08;76.69;100286.03;6337109;22;20026;-80
2022/12/13 02:03:57;;;;;;;31.98;20.65;;;;;;;-1.19;76.44;100292.06;6336921;22;20056;-81
2022/12/13 02:07:15;;;;;;;33.10;21.63;;;;;;;-1.18;76.67;100291.22;6319225;22;20404;-81
2022/12/13 02:10:18;;;;;;;36.30;23.67;;;;;;;-1.10;76.54;100287.75;6338920;22;20025;-80
2022/12/13 02:13:22;;;;;;;37.33;23.08;;;;;;;-1.13;76.09;100275.78;6337858;22;20026;-80
2022/12/13 02:16:38;;;;;;;33.95;22.10;;;;;;;-1.11;76.11;100284.31;6338170;22;20411;-80
2022/12/13 02:20:11;;;;;;;32.03;21.65;;;;;;;-1.15;76.17;100281.78;6319782;22;20029;-80
2022/12/13 02:23:34;;;;;;;30.25;19.90;;;;;;;-1.25;76.36;100274.16;6338923;22;20090;-80
2022/12/13 02:27:05;;;;;;;31.35;20.25;;;;;;;-1.37;75.98;100271.72;6339287;22;20029;-80
2022/12/13 02:30:29;;;;;;;34.47;21.52;;;;;;;-1.52;76.94;100270.09;6338569;22;20058;-80
2022/12/13 02:34:05;;;;;;;31.42;20.63;;;;;;;-1.34;76.32;100271.69;6338383;22;20026;-81
2022/12/13 02:37:54;;;;;;;33.88;21.92;;;;;;;-1.18;76.00;100269.84;6339000;22;20022;-83
2022/12/13 02:41:22;;;;;;;34.53;21.98;;;;;;;-1.30;76.32;100263.09;6182989;23;20024;-81
2022/12/13 02:44:44;;;;;;;31.45;20.83;;;;;;;-1.41;75.70;100262.31;6211018;22;20052;-81
2022/12/13 02:47:52;;;;;;;29.52;20.33;;;;;;;-1.57;76.16;100265.84;6338428;22;20049;-81
2022/12/13 02:51:04;;;;;;;33.47;21.55;;;;;;;-1.76;76.88;100268.53;6338862;22;20021;-81
2022/12/13 02:54:08;;;;;;;29.42;20.55;;;;;;;-1.68;76.75;100261.66;6319847;22;20057;-81
2022/12/13 02:57:36;;;;;;;32.42;20.30;;;;;;;-1.61;76.70;100261.63;6339484;22;20475;-81
2022/12/13 03:01:21;;;;;;;31.55;20.25;;;;;;;-1.65;76.88;100263.34;6338442;22;20096;-81
2022/12/13 03:09:06;;;;;;;31.92;20.15;;;;;;;-1.49;76.41;100256.41;6338657;22;20375;-82
2022/12/13 03:15:42;;;;;;;30.23;20.38;;;;;;;-1.78;76.64;100265.16;6338525;22;20145;-82
2022/12/13 03:18:47;;;;;;;31.77;20.83;;;;;;;-1.82;77.33;100257.47;6336573;22;20098;-82
2022/12/13 03:21:51;;;;;;;27.45;19.70;;;;;;;-1.61;75.99;100265.03;6337602;22;20053;-82
2022/12/13 03:24:54;;;;;;;;;;;;;;;-1.58;76.01;100259.88;6339067;22;20025;-81
2022/12/13 03:27:59;;;;;;;27.23;16.00;;;;;;;-1.90;76.87;100252.41;6338414;22;19913;-82
2022/12/13 03:31:04;;;;;;;30.48;20.20;;;;;;;-1.92;76.69;100260.09;6338012;22;20025;-82
2022/12/13 03:34:07;;;;;;;29.17;20.67;;;;;;;-1.79;75.84;100263.44;6338268;22;20030;-82
2022/12/13 03:37:11;;;;;;;31.80;21.08;;;;;;;-1.56;75.45;100258.19;6338265;22;20021;-82
2022/12/13 03:40:15;;;;;;;31.35;19.95;;;;;;;-1.65;75.56;100253.94;6338148;22;20021;-82
2022/12/13 03:43:18;;;;;;;27.80;19.52;;;;;;;-1.65;75.42;100256.53;6338196;22;20044;-82
2022/12/13 03:46:21;;;;;;;29.52;19.98;;;;;;;-1.48;74.75;100255.53;6337738;22;20048;-82
2022/12/13 03:49:24;;;;;;;28.77;18.58;;;;;;;-1.59;74.92;100255.63;6319067;22;20030;-81
2022/12/13 03:52:28;;;;;;;;;;;;;;;-1.74;75.11;100258.28;6338813;22;20030;-83
2022/12/13 03:55:31;;;;;;;29.95;20.10;;;;;;;-1.75;75.52;100262.56;6337664;22;20194;-83
2022/12/13 03:58:35;;;;;;;29.67;19.67;;;;;;;-1.74;75.50;100256.56;6337951;22;20092;-82
2022/12/13 04:01:38;;;;;;;28.05;18.88;;;;;;;-1.82;74.63;100262.59;6337976;22;20025;-83
2022/12/13 04:04:42;;;;;;;;;;;;;;;-2.00;75.13;100261.00;6338443;22;20088;-81
2022/12/13 04:07:51;;;;;;;28.42;17.13;;;;;;;-1.79;74.37;100266.00;6338126;22;19913;-82
2022/12/13 04:10:56;;;;;;;27.42;17.02;;;;;;;-1.64;74.04;100259.94;6337765;22;20022;-82
2022/12/13 04:14:00;;;;;;;26.90;17.70;;;;;;;-1.84;74.48;100261.78;6338121;22;20037;-82
2022/12/13 04:17:04;;;;;;;25.55;17.63;;;;;;;-1.88;74.05;100260.94;6337781;22;20068;-83
2022/12/13 04:20:08;;;;;;;24.08;16.55;;;;;;;-2.27;75.09;100267.09;6337269;22;20029;-83
2022/12/13 04:23:11;;;;;;;26.45;16.95;;;;;;;-2.29;75.26;100271.41;6336878;22;20042;-80
2022/12/13 04:26:15;;;;;;;27.13;18.00;;;;;;;-2.12;74.31;100272.16;6336008;22;20075;-78
2022/12/13 04:29:18;;;;;;;28.40;18.25;;;;;;;-2.04;74.42;100269.53;6337109;22;20068;-79
2022/12/13 04:32:22;;;;;;;27.10;18.00;;;;;;;-1.86;73.81;100264.34;6337436;22;20026;-79
2022/12/13 04:35:25;;;;;;;;;;;;;;;-1.84;73.78;100259.22;6338270;22;20041;-80
2022/12/13 04:38:28;;;;;;;24.95;16.48;;;;;;;-2.05;74.94;100266.13;6337050;22;19913;-80
2022/12/13 04:41:38;;;;;;;24.38;16.13;;;;;;;-2.12;75.16;100270.44;6337251;22;20063;-80
2022/12/13 04:44:41;;;;;;;26.23;14.98;;;;;;;-1.96;74.27;100270.38;6337203;22;20525;-81
2022/12/13 04:47:44;;;;;;;26.63;18.55;;;;;;;-1.88;73.56;100272.03;6337553;22;20025;-81
2022/12/13 04:50:49;;;;;;;;;;;;;;;-2.03;74.19;100271.28;6319066;22;20532;-79
2022/12/13 04:53:55;;;;;;;26.20;17.77;;;;;;;-2.07;74.65;100283.25;6337944;22;19914;-79
2022/12/13 04:56:58;;;;;;;25.73;16.92;;;;;;;-2.03;74.00;100276.41;6337413;22;20025;-77
2022/12/13 05:00:04;;;;;;;27.70;17.33;;;;;;;-2.00;73.83;100266.97;6337262;22;20072;-78
2022/12/13 05:03:07;;;;;;;25.58;16.27;;;;;;;-2.04;74.36;100269.53;6318512;22;20062;-80
2022/12/13 05:06:12;;;;;;;22.67;15.80;;;;;;;-2.12;74.47;100270.44;6337543;22;20021;-83
2022/12/13 05:09:16;;;;;;;22.13;14.98;;;;;;;-2.09;74.85;100273.88;6337343;22;20025;-82
2022/12/13 05:12:20;;;;;;;27.23;18.58;;;;;;;-2.34;75.10;100277.38;6336417;22;20068;-82
2022/12/13 05:15:24;;;;;;;27.35;17.67;;;;;;;-2.13;74.64;100268.75;6338307;22;20383;-81
2022/12/13 05:18:28;;;;;;;23.30;16.08;;;;;;;-1.97;74.61;100266.13;6333789;22;20053;-82
2022/12/13 05:21:33;;;;;;;25.05;16.35;;;;;;;-1.99;74.76;100260.97;6336037;22;20068;-82
2022/12/13 05:24:37;;;;;;;26.00;16.45;;;;;;;-2.10;74.51;100255.09;6337482;22;20131;-80
2022/12/13 05:27:40;;;;;;;23.88;15.65;;;;;;;-2.16;75.14;100260.22;6338192;22;20471;-80
2022/12/13 05:30:44;;;;;;;22.80;15.70;;;;;;;-1.82;73.57;100257.47;6338175;22;20026;-76
2022/12/13 05:33:47;;;;;;;28.02;17.65;;;;;;;-2.12;74.39;100259.34;6338199;22;20025;-77
2022/12/13 05:36:52;;;;;;;30.90;19.75;;;;;;;-1.99;74.26;100249.88;6337611;22;20018;-79
2022/12/13 05:40:02;;;;;;;29.05;19.30;;;;;;;-1.90;74.19;100247.28;6317057;22;20025;-86
2022/12/13 05:43:08;;;;;;;25.05;17.92;;;;;;;-1.88;73.77;100243.00;6335759;22;20029;-80
2022/12/13 05:46:12;;;;;;;24.08;15.95;;;;;;;-2.16;74.18;100243.16;6335086;22;20037;-78
2022/12/13 05:49:14;;;;;;;;;;;;;;;-2.02;74.13;100242.22;6336989;22;20478;-80
2022/12/13 05:52:23;;;;;;;26.02;16.98;;;;;;;-2.02;74.19;100242.22;6337770;22;19929;-83
2022/12/13 05:55:26;;;;;;;26.73;16.17;;;;;;;-1.79;73.21;100250.63;6337834;22;20344;-78
2022/12/13 05:58:39;;;;;;;25.13;15.77;;;;;;;-1.81;73.04;100262.59;6338116;22;20021;-77
2022/12/13 06:01:42;;;;;;;25.98;16.00;;;;;;;-1.78;72.87;100252.34;6333641;22;20071;-81
2022/12/13 06:04:46;;;;;;;23.08;15.63;;;;;;;-1.69;72.50;100251.41;6328595;22;20022;-82
2022/12/13 06:07:49;;;;;;;24.50;16.23;;;;;;;-1.72;72.51;100247.16;6328511;22;20356;-82
2022/12/13 06:10:55;;;;;;;25.80;16.55;;;;;;;-1.80;72.18;100241.22;6329584;22;20405;-81
2022/12/13 06:13:57;;;;;;;24.50;15.75;;;;;;;-1.82;72.05;100237.81;6314625;22;20021;-80
2022/12/13 06:17:01;;;;;;;24.52;15.45;;;;;;;-1.77;71.95;100248.06;6335586;22;20072;-82
2022/12/13 06:20:06;;;;;;;24.08;15.65;;;;;;;-1.77;72.01;100246.34;6337594;22;20089;-83
2022/12/13 06:23:09;;;;;;;23.92;16.98;;;;;;;-1.75;71.77;100233.53;6337786;22;20061;-82
2022/12/13 06:26:12;;;;;;;23.10;16.10;;;;;;;-2.01;72.96;100238.78;6337865;22;20026;-85
2022/12/13 06:34:06;;;;;;;23.88;15.57;;;;;;;-2.09;73.65;100238.84;6328894;22;20021;-84
2022/12/13 06:37:13;;;;;;;25.35;15.55;;;;;;;-1.98;73.17;100238.78;6332013;22;20068;-84
2022/12/13 06:41:12;;;;;;;22.98;16.05;;;;;;;-2.01;72.88;100234.53;6332056;22;20068;-83
2022/12/13 06:44:15;;;;;;;22.55;15.77;;;;;;;-2.01;73.43;100239.66;6330450;22;20033;-84
2022/12/13 06:47:18;;;;;;;19.20;11.68;;;;;;;-1.95;72.79;100228.50;6331217;22;20026;-84
2022/12/13 06:50:23;;;;;;;;;;;;;;;-2.06;73.53;100241.38;6331629;22;20029;-85
2022/12/13 06:53:28;;;;;;;26.40;16.10;;;;;;;-1.98;72.78;100238.78;6332618;22;19921;-85
2022/12/13 06:56:32;;;;;;;24.40;15.32;;;;;;;-2.00;72.64;100241.34;6299079;22;20038;-83
2022/12/13 06:59:37;;;;;;;23.25;15.68;;;;;;;-1.94;72.30;100245.59;6301185;22;20026;-84
2022/12/13 07:02:42;;;;;;;24.80;15.35;;;;;;;-2.03;72.70;100246.50;6300596;22;20025;-84
2022/12/13 07:05:46;;;;;;;26.58;17.55;;;;;;;-1.91;71.91;100245.59;6300964;22;20026;-84
2022/12/13 07:08:52;;;;;;;25.38;16.75;;;;;;;-2.23;72.32;100244.03;6301719;22;20525;-83
2022/12/13 07:11:59;;;;;;;27.05;17.35;;;;;;;-2.14;72.34;100244.00;6300994;22;20361;-84
2022/12/13 07:15:03;;;;;;;24.85;17.23;;;;;;;-2.13;72.45;100240.56;6302186;22;20098;-83
2022/12/13 07:18:10;;;;;;;23.80;16.02;;;;;;;-2.22;72.68;100239.78;6301394;22;20033;-84
2022/12/13 07:21:15;;;;;;;25.10;15.57;;;;;;;-2.07;72.08;100238.81;6302325;22;20049;-85
2022/12/13 07:24:18;;;;;;;24.80;16.48;;;;;;;-2.19;72.46;100245.72;6301327;22;20076;-84
2022/12/13 07:27:22;;;;;;;;;;;;;;;-2.41;73.23;100249.25;6301861;22;20026;-84
2022/12/13 07:30:26;;;;;;;24.90;15.77;;;;;;;-2.49;74.02;100250.97;6299906;22;19917;-84
2022/12/13 07:33:34;;;;;;;25.33;16.27;;;;;;;-2.31;73.50;100250.03;6301118;22;20053;-84
2022/12/13 07:36:40;;;;;;;26.15;17.45;;;;;;;-2.22;72.74;100248.28;6301158;22;20018;-84
2022/12/13 07:39:44;;;;;;;23.35;15.30;;;;;;;-2.43;73.20;100251.78;6300079;22;20030;-84
2022/12/13 07:42:52;;;;;;;25.17;16.20;;;;;;;-2.41;72.96;100252.66;6299745;22;20025;-84
2022/12/13 07:46:00;;;;;;;23.38;14.85;;;;;;;-2.24;72.47;100256.84;6296527;22;20026;-85
2022/12/13 07:49:04;;;;;;;23.23;15.45;;;;;;;-2.39;72.87;100247.53;6301148;22;20641;-82
2022/12/13 07:52:10;;;;;;;25.35;16.23;;;;;;;-2.49;72.72;100256.97;6300706;22;20025;-84
2022/12/13 07:55:14;;;;;;;27.85;16.35;;;;;;;-2.35;73.12;100251.78;6308957;22;20100;-84
2022/12/13 07:58:18;;;;;;;23.40;15.50;;;;;;;-2.57;73.40;100259.53;6331087;22;20407;-86
2022/12/13 08:06:23;;;;;;;24.77;15.65;;;;;;;-2.53;73.20;100255.25;6331383;22;20026;-89
2022/12/13 08:15:52;;;;;;;27.90;17.05;;;;;;;-2.38;72.42;100249.22;6205302;23;20501;-91
2022/12/13 08:20:07;;;;;;;22.65;15.27;;;;;;;-2.30;72.25;100246.63;6193806;23;20027;-93
2022/12/13 08:29:03;;;;;;;28.73;17.27;;;;;;;-2.19;71.49;100248.28;6135051;23;20056;-96
2022/12/13 08:42:44;;;;;;;30.85;18.05;;;;;;;-2.15;71.60;100246.56;6190699;22;20015;-68
2022/12/13 08:45:52;;;;;;;29.67;17.80;;;;;;;-2.29;72.61;100246.63;6301721;22;20519;-69
2022/12/13 08:48:55;;;;;;;27.27;17.20;;;;;;;-2.26;73.03;100248.34;6302144;22;20042;-72
2022/12/13 08:51:58;;;;;;;26.67;17.88;;;;;;;-2.17;72.54;100256.81;6301180;22;20025;-72
2022/12/13 08:55:05;;;;;;;;;;;;;;;-2.23;72.99;100256.00;6302022;22;20046;-73
2022/12/13 08:58:08;;;;;;;25.48;17.23;;;;;;;-2.09;72.40;100250.81;6300600;22;19917;-73
2022/12/13 09:01:21;;;;;;;26.05;18.30;;;;;;;-2.06;72.77;100245.66;6301482;22;20070;-73
2022/12/13 09:04:25;;;;;;;28.35;18.15;;;;;;;-1.97;71.71;100245.63;6301199;22;20026;-73
2022/12/13 09:07:29;;;;;;;28.08;18.05;;;;;;;-2.18;72.67;100252.53;6299988;22;20073;-73
2022/12/13 09:10:32;;;;;;;27.00;18.10;;;;;;;-2.03;72.59;100261.03;6301006;22;20359;-74
2022/12/13 09:13:36;;;;;;;30.40;18.70;;;;;;;-2.02;72.49;100262.72;6301779;22;20026;-74
2022/12/13 09:16:40;;;;;;;34.70;18.90;;;;;;;-1.92;71.80;100266.94;6301876;22;20537;-74
2022/12/13 09:19:43;;;;;;;28.48;18.30;;;;;;;-1.96;71.41;100268.66;6301021;22;20310;-69
2022/12/13 09:22:55;;;;;;;27.98;18.35;;;;;;;-1.71;70.74;100274.50;6300483;22;20155;-69
2022/12/13 09:26:11;;;;;;;31.05;18.83;;;;;;;-1.98;71.24;100278.09;6300319;22;20069;-70
2022/12/13 09:29:23;;;;;;;29.27;17.27;;;;;;;-1.80;70.89;100273.72;6268956;22;20050;-70
2022/12/13 09:32:27;;;;;;;28.45;18.80;;;;;;;-1.96;71.02;100278.06;6301909;22;20437;-69
2022/12/13 09:35:33;;;;;;;;;;;;;;;-1.90;70.49;100281.44;6300026;22;20026;-69
2022/12/13 09:38:36;;;;;;;28.73;18.23;;;;;;;-1.95;70.94;100277.19;6279241;22;19971;-69
2022/12/13 09:41:46;;;;;;;25.48;17.60;;;;;;;-1.89;70.93;100274.59;6297102;22;20072;-70
2022/12/13 09:44:57;;;;;;;29.88;19.80;;;;;;;-1.95;71.08;100283.16;6298305;22;20147;-69
2022/12/13 09:48:01;;;;;;;22.90;15.80;;;;;;;-1.96;71.29;100276.34;6299274;22;20366;-69
2022/12/13 09:51:10;;;;;;;27.75;17.05;;;;;;;-2.36;71.28;100275.69;6277780;22;20097;-69
2022/12/13 09:54:22;;;;;;;25.80;17.75;;;;;;;-2.18;72.37;100267.91;6280324;22;20030;-69
2022/12/13 09:57:33;;;;;;;29.92;20.08;;;;;;;-2.28;72.47;100280.78;6297473;22;20374;-69
2022/12/13 10:00:40;;;;;;;30.48;18.20;;;;;;;-2.22;72.43;100270.50;6297195;22;20320;-69
2022/12/13 10:03:54;;;;;;;26.02;17.95;;;;;;;-2.15;71.96;100267.91;6299578;22;20579;-70
2022/12/13 10:07:12;;;;;;;26.83;18.13;;;;;;;-2.14;72.29;100268.75;6301343;22;20456;-70
2022/12/13 10:10:31;;;;;;;25.42;18.08;;;;;;;-1.96;71.59;100266.09;6282713;22;20041;-69
2022/12/13 10:14:04;;;;;;;29.17;20.02;;;;;;;-1.85;71.50;100260.06;6300655;22;20025;-69
2022/12/13 10:17:15;;;;;;;27.88;18.25;;;;;;;-1.85;71.55;100260.94;6299560;22;20026;-69
2022/12/13 10:20:22;;;;;;;26.90;18.02;;;;;;;-1.84;71.92;100248.97;6300136;22;20468;-70
2022/12/13 10:23:26;;;;;;;27.35;18.15;;;;;;;-1.73;71.50;100245.44;6301633;22;20100;-70
2022/12/13 10:26:36;;;;;;;26.75;18.42;;;;;;;-1.93;72.04;100235.34;6301414;22;20726;-69
2022/12/13 10:29:59;;;;;;;30.05;17.95;;;;;;;-1.66;72.22;100238.56;6303301;22;20412;-69
2022/12/13 10:33:04;;;;;;;28.10;17.60;;;;;;;-1.67;71.68;100229.19;6302509;22;20235;-69
2022/12/13 10:36:28;;;;;;;28.40;18.83;;;;;;;-1.56;71.15;100221.41;6303373;22;20400;-69
2022/12/13 10:39:43;;;;;;;27.40;18.42;;;;;;;-1.56;71.66;100216.28;6302485;22;20025;-70
2022/12/13 10:43:10;;;;;;;28.02;18.60;;;;;;;-1.70;72.16;100214.66;6299909;22;20076;-70
2022/12/13 10:46:29;;;;;;;26.35;17.90;;;;;;;-1.64;72.22;100209.50;6302527;22;20023;-69
2022/12/13 10:49:46;;;;;;;25.77;16.48;;;;;;;-1.85;72.30;100213.91;6302018;22;20119;-70
2022/12/13 10:52:49;;;;;;;29.08;18.45;;;;;;;-1.91;72.79;100207.16;6303036;22;20022;-70
2022/12/13 10:55:57;;;;;;;22.75;16.33;;;;;;;-1.61;71.99;100213.75;6302419;22;20030;-70
2022/12/13 10:59:42;;;;;;;23.98;16.02;;;;;;;-1.51;71.68;100206.84;6301477;22;20330;-70
2022/12/13 11:02:54;;;;;;;26.45;17.55;;;;;;;-1.55;71.90;100206.03;6259009;22;20076;-70
2022/12/13 11:06:22;;;;;;;25.35;16.13;;;;;;;-1.38;71.14;100195.63;6302794;22;20077;-70
2022/12/13 11:09:33;;;;;;;23.40;15.45;;;;;;;-1.42;70.70;100197.34;6302044;22;20025;-70
2022/12/13 11:12:44;;;;;;;25.67;16.27;;;;;;;-1.31;70.64;100192.16;6301251;22;20030;-70
2022/12/13 11:16:19;;;;;;;25.63;17.02;;;;;;;-1.33;70.17;100193.03;6301642;22;20436;-69
2022/12/13 11:19:38;;;;;;;26.65;16.08;;;;;;;-1.42;70.40;100181.97;6301873;22;20069;-69
2022/12/13 11:22:44;;;;;;;23.73;15.95;;;;;;;-1.37;69.84;100176.81;6302398;22;20084;-71
2022/12/13 11:25:58;;;;;;;23.58;15.68;;;;;;;-1.36;70.02;100173.38;6301844;22;20181;-71
2022/12/13 11:29:13;;;;;;;25.20;15.98;;;;;;;-1.46;70.58;100176.91;6302246;22;20399;-71
2022/12/13 11:32:34;;;;;;;24.10;16.10;;;;;;;-1.47;70.98;100178.63;6303114;22;20523;-72
2022/12/13 11:35:58;;;;;;;23.85;15.38;;;;;;;-1.28;70.40;100181.84;6301703;22;20396;-71
2022/12/13 11:39:25;;;;;;;23.23;15.40;;;;;;;-1.30;70.43;100170.75;6302931;22;20326;-71
2022/12/13 11:42:57;;;;;;;25.02;15.48;;;;;;;-1.23;70.43;100153.59;6300724;22;20561;-71
2022/12/13 11:46:14;;;;;;;24.00;15.45;;;;;;;-1.12;70.13;100151.75;6283467;22;20350;-71
2022/12/13 11:49:46;;;;;;;25.17;15.63;;;;;;;-1.17;70.14;100131.28;6301515;22;20291;-71
2022/12/13 11:53:00;;;;;;;22.83;15.05;;;;;;;-1.07;69.60;100123.50;6302290;22;20039;-71
2022/12/13 11:56:09;;;;;;;24.13;16.23;;;;;;;-0.95;69.79;100118.22;6300626;22;20496;-71
2022/12/13 11:59:38;;;;;;;23.83;16.42;;;;;;;-0.89;69.75;100097.63;6301871;22;20079;-71
2022/12/13 12:03:01;;;;;;;26.80;17.00;;;;;;;-0.72;69.17;100095.69;6302638;22;20027;-71
2022/12/13 12:07:01;;;;;;;25.30;16.23;;;;;;;-0.81;69.64;100093.22;6300834;22;20042;-71
2022/12/13 12:10:14;;;;;;;22.75;15.60;;;;;;;-0.83;69.41;100102.69;6254519;22;20116;-71
2022/12/13 12:13:38;;;;;;;24.08;15.88;;;;;;;-0.79;68.93;100096.63;6301871;22;20076;-71
2022/12/13 12:16:52;;;;;;;21.75;14.77;;;;;;;-0.79;69.38;100099.19;6301526;22;20504;-71
2022/12/13 12:20:04;;;;;;;23.75;16.98;;;;;;;-0.67;69.25;100102.47;6283746;22;20026;-71
2022/12/13 12:23:25;;;;;;;21.77;15.73;;;;;;;-0.83;69.41;100097.53;6283461;22;20026;-71
2022/12/13 12:27:05;;;;;;;23.35;15.85;;;;;;;-0.84;69.96;100106.09;6301126;22;20026;-71
2022/12/13 12:30:21;;;;;;;22.30;15.60;;;;;;;-0.80;69.67;100091.50;6282188;22;20460;-71
2022/12/13 12:34:16;;;;;;;24.08;16.13;;;;;;;-0.73;69.34;100083.72;6301836;22;20030;-71
2022/12/13 12:37:53;;;;;;;23.08;14.73;;;;;;;-0.79;70.52;100073.53;6302419;22;20077;-76
2022/12/13 12:41:20;;;;;;;21.55;15.18;;;;;;;-0.65;69.88;100069.91;6302259;22;20173;-71
2022/12/13 12:45:54;;;;;;;;;;;;;;;;;;;;;
2022/12/13 12:50:21;;;;;;;;;;;;;;;;;;;;;
2022/12/13 12:58:57;;;;;;;22.40;15.00;;;;;;;-0.31;68.16;100076.28;6146258;23;20105;-71
2022/12/13 13:08:58;;;;;;;22.90;14.95;;;;;;;0.02;67.05;100071.47;6286572;22;20478;-73
2022/12/13 13:12:14;;;;;;;22.88;15.65;;;;;;;0.05;67.27;100066.28;6301107;22;20068;-73
2022/12/13 13:16:14;;;;;;;22.48;14.57;;;;;;;0.01;67.12;100056.09;6300566;22;20022;-73
2022/12/13 13:19:42;;;;;;;22.48;15.00;;;;;;;-0.05;68.18;100057.88;6301092;22;20371;-73
2022/12/13 13:22:57;;;;;;;20.17;13.52;;;;;;;0.02;68.05;100063.75;6300022;22;20038;-72
2022/12/13 13:26:46;;;;;;;21.40;14.77;;;;;;;0.23;67.44;100062.56;6301432;22;20041;-72
2022/12/13 13:31:07;;;;;;;17.85;12.02;;;;;;;0.16;66.45;100056.69;6302056;22;20049;-72
2022/12/13 13:35:31;;;;;;;22.13;14.35;;;;;;;0.18;66.51;100054.91;6301691;22;20022;-73
2022/12/13 13:38:52;;;;;;;22.13;14.40;;;;;;;0.09;66.75;100049.91;6302060;22;20525;-73
2022/12/13 13:42:14;;;;;;;22.98;13.77;;;;;;;0.25;66.62;100049.66;6300957;22;20057;-72
2022/12/13 13:45:23;;;;;;;19.70;13.15;;;;;;;0.18;67.19;100047.19;6300406;22;20464;-73
2022/12/13 13:48:44;;;;;;;21.13;13.45;;;;;;;0.15;67.05;100038.69;6302444;22;20030;-72
2022/12/13 13:51:53;;;;;;;22.23;12.63;;;;;;;0.09;66.93;100044.78;6302460;22;20037;-71
2022/12/13 13:55:47;;;;;;;;;;;;;;;;;;;;;
2022/12/13 13:59:28;;;;;;;21.15;13.35;;;;;;;0.12;66.40;100051.59;6301196;22;20461;-71
2022/12/13 14:03:08;;;;;;;20.63;14.13;;;;;;;0.13;66.48;100053.31;6301633;22;20053;-71
2022/12/13 14:06:27;;;;;;;22.80;13.35;;;;;;;0.15;66.23;100057.53;6302876;22;20463;-70
2022/12/13 14:10:15;;;;;;;20.80;12.80;;;;;;;0.24;66.54;100053.97;6242161;23;20081;-70
2022/12/13 14:13:31;;;;;;;20.90;12.45;;;;;;;0.15;66.46;100044.69;6160379;22;20543;-71
2022/12/13 14:16:53;;;;;;;21.25;14.00;;;;;;;0.07;66.71;100054.25;6240307;23;20501;-70
2022/12/13 14:20:03;;;;;;;20.42;13.73;;;;;;;0.13;67.22;100051.59;6239857;23;20073;-70
2022/12/13 14:23:06;;;;;;;20.63;14.65;;;;;;;0.06;67.10;100049.13;6242601;23;20059;-70
2022/12/13 14:26:25;;;;;;;20.42;14.23;;;;;;;0.13;67.12;100049.03;6241839;23;20615;-70
2022/12/13 14:29:36;;;;;;;21.05;13.93;;;;;;;0.09;66.81;100052.50;6242695;23;20027;-70
2022/12/13 14:32:43;;;;;;;18.63;12.38;;;;;;;0.05;67.13;100048.28;6242545;23;20093;-70
2022/12/13 14:35:58;;;;;;;20.88;13.55;;;;;;;0.17;66.32;100053.22;6240074;23;20081;-70
2022/12/13 14:39:13;;;;;;;21.15;12.95;;;;;;;0.10;66.54;100055.94;6238291;23;20399;-70
2022/12/13 14:42:26;;;;;;;17.73;12.88;;;;;;;0.12;66.27;100060.16;6238063;23;20027;-70
2022/12/13 14:45:35;;;;;;;18.02;11.82;;;;;;;-0.02;67.78;100057.81;6240468;23;20027;-70
2022/12/13 14:48:48;;;;;;;19.63;12.93;;;;;;;0.07;67.62;100064.53;6239348;23;20074;-70
2022/12/13 14:52:00;;;;;;;22.85;12.32;;;;;;;-0.02;67.23;100057.81;6241736;23;20035;-70
2022/12/13 14:55:04;;;;;;;23.40;13.32;;;;;;;0.17;66.68;100058.38;6238839;23;20367;-71
2022/12/13 14:58:19;;;;;;;18.77;12.25;;;;;;;-0.11;67.12;100062.25;6238265;23;20363;-70
2022/12/13 15:01:35;;;;;;;18.13;11.73;;;;;;;-0.19;66.93;100056.38;6239249;23;20026;-70
2022/12/13 15:04:38;;;;;;;20.85;13.43;;;;;;;-0.24;67.49;100051.34;6243455;23;20027;-70
2022/12/13 15:08:02;;;;;;;19.00;12.93;;;;;;;-0.28;67.76;100037.69;6261024;22;20628;-70
2022/12/13 15:11:08;;;;;;;19.23;12.75;;;;;;;-0.28;68.28;100042.00;6302417;22;20076;-70
2022/12/13 15:14:21;;;;;;;18.45;12.10;;;;;;;-0.21;68.20;100024.75;6301952;22;20034;-71
2022/12/13 15:17:37;;;;;;;19.13;11.35;;;;;;;-0.38;68.27;100031.00;6303165;22;20076;-69
2022/12/13 15:21:36;;;;;;;20.48;11.82;;;;;;;-0.36;68.41;100026.69;6303487;22;20030;-70
2022/12/13 15:29:07;;;;;;;17.52;11.02;;;;;;;-0.28;68.28;100008.59;6307843;22;20042;-69
2022/12/13 17:15:17;;;;;;;17.33;11.63;;;;;;;-1.31;70.77;99965.56;6275735;22;20346;-70
2022/12/13 17:19:16;;;;;;;17.42;11.38;;;;;;;-1.36;71.39;99964.81;6275697;22;20513;-71
2022/12/13 17:28:30;;;;;;;;;;;;;;;;;;;;;
2022/12/13 17:32:42;;;;;;;17.92;12.60;;;;;;;-0.94;69.20;99948.81;6211824;23;20102;-71
2022/12/13 17:35:56;;;;;;;20.92;12.10;;;;;;;-0.92;69.28;99946.25;6242405;22;20088;-71